Ark, Virginia
Current Conditions -  °F | °C
As of 8:15 AM on Thursday 23 Oct 2014 (Local Time) from KFYJ Reporting Station
Overcast Overcast  
Wind Chill: 54°   Ceiling: 4600
Heat Index: 54°   Visibility: 10mi
Dew Point: 43°   Wind: 9mph
Humidity: 68%   Direction: 300°WNW
Pressure: 29.93"   Gusts: NA
Location:  37.44°N, 76.58°W
Report Text: KFYJ 231215Z AUTO 30008KT 10SM BKN046 BKN055 OVC065 12/06 A2993 RMK AO2 T01200063
Loading
Personal Weather Stations






























Interactive Weather Map
Tropical Storm Tracking
New forecast layout! Learn more

10-Day Weather Forecast

Advertisements
Track Severe Weather on mobile